createdAt,value
2017-08-07T00:00:56.435Z,14.17
2017-08-07T00:03:22.323Z,14.01
2017-08-07T00:05:48.148Z,14.12
2017-08-07T00:08:14.003Z,14.30
2017-08-07T00:10:39.812Z,14.30
2017-08-07T00:13:05.667Z,14.33
2017-08-07T00:15:31.493Z,14.32
2017-08-07T00:17:57.339Z,14.19
2017-08-07T00:20:23.311Z,14.19
2017-08-07T00:22:49.185Z,14.09
2017-08-07T00:25:15.026Z,14.10
2017-08-07T00:27:40.975Z,13.97
2017-08-07T00:30:06.795Z,14.03
2017-08-07T00:32:32.735Z,14.03
2017-08-07T00:34:58.595Z,13.81
2017-08-07T00:37:24.531Z,13.97
2017-08-07T00:39:50.444Z,13.86
2017-08-07T00:42:16.284Z,13.81
2017-08-07T00:44:42.150Z,13.69
2017-08-07T00:47:08.185Z,13.68
2017-08-07T00:49:34.095Z,13.68
2017-08-07T00:52:00.049Z,13.70
2017-08-07T00:54:25.979Z,13.63
2017-08-07T00:56:51.835Z,13.62
2017-08-07T00:59:17.704Z,13.52
2017-08-07T01:01:43.614Z,13.38
2017-08-07T01:04:09.458Z,13.51
2017-08-07T01:06:35.331Z,13.56
2017-08-07T01:09:01.159Z,13.52
2017-08-07T01:11:27.027Z,13.53
2017-08-07T01:13:52.918Z,13.54
2017-08-07T01:16:18.846Z,13.54
2017-08-07T01:18:44.777Z,13.35
2017-08-07T01:21:10.642Z,13.34
2017-08-07T01:23:36.447Z,13.40
2017-08-07T01:26:02.304Z,13.39
2017-08-07T01:28:28.165Z,13.42
2017-08-07T01:30:54.170Z,13.24
2017-08-07T01:33:20.109Z,13.24
2017-08-07T01:35:45.974Z,13.27
2017-08-07T01:38:11.807Z,13.22
2017-08-07T01:40:37.703Z,13.16
2017-08-07T01:43:03.571Z,13.11
2017-08-07T01:45:29.479Z,13.04
2017-08-07T01:47:55.391Z,13.04
2017-08-07T01:50:21.229Z,13.13
2017-08-07T01:52:47.092Z,13.05
2017-08-07T01:55:12.963Z,13.05
2017-08-07T01:57:38.929Z,13.04
2017-08-07T02:00:04.800Z,12.92
2017-08-07T02:02:30.716Z,12.93
2017-08-07T02:04:56.551Z,12.82
2017-08-07T02:07:22.422Z,12.58
2017-08-07T02:09:48.250Z,12.84
2017-08-07T02:12:14.079Z,12.82
2017-08-07T02:14:39.913Z,12.87
2017-08-07T02:17:05.851Z,12.88
2017-08-07T02:19:31.719Z,12.77
2017-08-07T02:21:57.560Z,12.73
2017-08-07T02:24:23.389Z,12.57
2017-08-07T02:26:49.371Z,12.68
2017-08-07T02:29:15.189Z,12.73
2017-08-07T02:31:41.019Z,12.63
2017-08-07T02:34:06.869Z,12.65
2017-08-07T02:36:32.880Z,12.60
2017-08-07T02:38:58.699Z,12.55
2017-08-07T02:41:24.548Z,12.40
2017-08-07T02:43:50.451Z,12.03
2017-08-07T02:46:16.268Z,12.31
2017-08-07T02:48:42.222Z,12.46
2017-08-07T02:51:08.122Z,12.44
2017-08-07T02:53:33.951Z,12.36
2017-08-07T02:55:59.803Z,12.42
2017-08-07T02:58:25.649Z,12.40
2017-08-07T03:00:51.496Z,12.36
2017-08-07T03:03:17.480Z,12.36
2017-08-07T03:05:44.283Z,12.40
2017-08-07T03:08:10.155Z,12.32
2017-08-07T03:10:36.176Z,12.34
2017-08-07T03:13:02.035Z,12.31
2017-08-07T03:15:27.978Z,12.26
2017-08-07T03:17:53.829Z,12.35
2017-08-07T03:20:19.688Z,12.32
2017-08-07T03:22:45.733Z,12.17
2017-08-07T03:25:11.619Z,12.19
2017-08-07T03:27:37.518Z,12.14
2017-08-07T03:30:03.365Z,12.11
2017-08-07T03:32:29.330Z,12.10
2017-08-07T03:34:55.170Z,11.96
2017-08-07T03:37:21.210Z,12.00
2017-08-07T03:39:47.099Z,12.04
2017-08-07T03:42:12.987Z,11.94
2017-08-07T03:44:38.887Z,11.90
2017-08-07T03:47:04.851Z,11.81
2017-08-07T03:49:30.663Z,11.83
2017-08-07T03:51:56.546Z,11.95
2017-08-07T03:54:22.467Z,11.98
2017-08-07T03:56:48.282Z,11.93
2017-08-07T03:59:14.121Z,11.85
2017-08-07T04:01:39.937Z,11.82
2017-08-07T04:04:05.722Z,11.84
2017-08-07T04:06:31.565Z,11.85
2017-08-07T04:08:57.458Z,11.82
2017-08-07T04:11:23.313Z,11.83
2017-08-07T04:13:49.308Z,11.88
2017-08-07T04:16:15.288Z,11.89
2017-08-07T04:18:41.149Z,11.93
2017-08-07T04:21:07.148Z,11.96
2017-08-07T04:23:32.986Z,12.01
2017-08-07T04:25:58.997Z,12.05
2017-08-07T04:28:24.851Z,11.91
2017-08-07T04:30:50.845Z,11.85
2017-08-07T04:33:16.666Z,11.79
2017-08-07T04:35:42.729Z,11.86
2017-08-07T04:38:08.635Z,11.82
2017-08-07T04:40:34.548Z,11.51
2017-08-07T04:43:00.349Z,11.48
2017-08-07T04:45:26.165Z,11.57
2017-08-07T04:47:51.956Z,11.82
2017-08-07T04:50:17.789Z,11.79
2017-08-07T04:52:43.577Z,11.82
2017-08-07T04:55:09.377Z,11.71
2017-08-07T04:57:35.270Z,11.91
2017-08-07T05:00:01.192Z,12.12
2017-08-07T05:02:27.035Z,12.21
2017-08-07T05:04:52.873Z,12.23
2017-08-07T05:07:18.658Z,12.13
2017-08-07T05:09:44.533Z,12.13
2017-08-07T05:12:10.337Z,12.39
2017-08-07T05:14:36.110Z,12.50
2017-08-07T05:17:02.035Z,12.46
2017-08-07T05:19:27.944Z,12.65
2017-08-07T05:21:53.792Z,12.66
2017-08-07T05:24:19.652Z,12.72
2017-08-07T05:26:45.473Z,13.04
2017-08-07T05:29:11.248Z,13.09
2017-08-07T05:31:37.020Z,13.17
2017-08-07T05:34:02.884Z,13.34
2017-08-07T05:36:28.776Z,13.11
2017-08-07T05:38:54.552Z,13.01
2017-08-07T05:41:20.367Z,13.62
2017-08-07T05:43:46.178Z,13.70
2017-08-07T05:46:12.041Z,13.88
2017-08-07T05:48:37.876Z,14.31
2017-08-07T05:51:03.822Z,14.38
2017-08-07T05:53:29.640Z,14.52
2017-08-07T05:55:55.465Z,14.47
2017-08-07T05:58:21.279Z,14.74
2017-08-07T06:00:47.090Z,14.83
2017-08-07T06:03:12.980Z,14.82
2017-08-07T06:05:38.788Z,14.89
2017-08-07T06:08:04.608Z,15.22
2017-08-07T06:10:30.417Z,15.57
2017-08-07T06:12:56.251Z,15.53
2017-08-07T06:15:22.069Z,15.67
2017-08-07T06:17:48.063Z,15.89
2017-08-07T06:20:13.860Z,15.76
2017-08-07T06:22:39.673Z,16.15
2017-08-07T06:25:06.556Z,16.29
2017-08-07T06:27:32.368Z,16.36
2017-08-07T06:29:58.160Z,16.56
2017-08-07T06:32:24.028Z,16.72
2017-08-07T06:34:49.845Z,16.78
2017-08-07T06:37:15.677Z,16.99
2017-08-07T06:39:41.529Z,17.24
2017-08-07T06:42:07.414Z,17.66
2017-08-07T06:44:33.236Z,17.83
2017-08-07T06:46:59.059Z,17.91
2017-08-07T06:49:24.869Z,18.02
2017-08-07T06:51:50.752Z,18.25
2017-08-07T06:54:16.589Z,18.69
2017-08-07T06:56:42.393Z,18.75
2017-08-07T06:59:08.235Z,18.99
2017-08-07T07:01:34.040Z,19.13
2017-08-07T07:03:59.893Z,19.21
2017-08-07T07:06:26.101Z,19.40
2017-08-07T07:08:51.905Z,19.43
2017-08-07T07:11:17.748Z,19.71
2017-08-07T07:13:43.557Z,19.73
2017-08-07T07:16:09.424Z,19.85
2017-08-07T07:18:35.299Z,19.90
2017-08-07T07:21:01.300Z,20.57
2017-08-07T07:23:27.205Z,20.63
2017-08-07T07:25:53.072Z,20.44
2017-08-07T07:28:18.897Z,20.74
2017-08-07T07:30:44.932Z,20.71
2017-08-07T07:33:10.844Z,20.83
2017-08-07T07:35:36.652Z,20.53
2017-08-07T07:38:02.508Z,21.13
2017-08-07T07:40:28.370Z,21.91
2017-08-07T07:42:54.335Z,21.90
2017-08-07T07:45:20.261Z,22.06
2017-08-07T07:47:46.078Z,22.22
2017-08-07T07:50:11.894Z,21.67
2017-08-07T07:52:37.722Z,21.52
2017-08-07T07:55:03.522Z,21.44
2017-08-07T07:57:29.331Z,21.17
2017-08-07T07:59:55.224Z,21.85
2017-08-07T08:02:21.045Z,21.68
2017-08-07T08:04:46.862Z,21.62
2017-08-07T08:07:12.769Z,21.48
2017-08-07T08:09:38.633Z,21.61
2017-08-07T08:12:04.545Z,21.54
2017-08-07T08:14:30.340Z,21.66
2017-08-07T08:16:56.144Z,22.01
2017-08-07T08:19:22.317Z,22.12
2017-08-07T08:21:48.152Z,22.50
2017-08-07T08:24:13.967Z,22.44
2017-08-07T08:26:39.797Z,22.16
2017-08-07T08:29:05.591Z,22.45
2017-08-07T08:31:31.511Z,22.02
2017-08-07T08:33:57.497Z,21.91
2017-08-07T08:36:23.346Z,21.70
2017-08-07T08:38:49.266Z,22.32
2017-08-07T08:41:15.155Z,22.73
2017-08-07T08:43:41.002Z,22.55
2017-08-07T08:46:06.809Z,21.47
2017-08-07T08:48:32.626Z,22.19
2017-08-07T08:50:58.474Z,23.50
2017-08-07T08:53:24.391Z,24.02
2017-08-07T08:55:50.299Z,24.47
2017-08-07T08:58:16.319Z,23.82
2017-08-07T09:00:42.163Z,22.56
2017-08-07T09:03:08.120Z,22.87
2017-08-07T09:05:33.940Z,23.30
2017-08-07T09:07:59.775Z,24.01
2017-08-07T09:10:25.635Z,23.42
2017-08-07T09:12:51.554Z,23.38
2017-08-07T09:15:17.436Z,23.46
2017-08-07T09:17:43.256Z,23.44
2017-08-07T09:20:09.081Z,23.82
2017-08-07T09:22:34.929Z,25.21
2017-08-07T09:25:00.785Z,25.01
2017-08-07T09:27:26.671Z,23.96
2017-08-07T09:29:52.557Z,24.29
2017-08-07T09:32:18.448Z,25.19
2017-08-07T09:34:44.416Z,24.81
2017-08-07T09:37:10.235Z,23.98
2017-08-07T09:39:36.070Z,25.13
2017-08-07T09:42:01.993Z,25.58
2017-08-07T09:44:27.847Z,24.52
2017-08-07T09:46:54.678Z,23.43
2017-08-07T09:49:20.555Z,24.82
2017-08-07T09:51:46.370Z,25.05
2017-08-07T09:54:12.180Z,25.17
2017-08-07T09:56:38.007Z,25.79
2017-08-07T09:59:04.074Z,25.38
2017-08-07T10:01:30.049Z,24.13
2017-08-07T10:03:55.912Z,25.70
2017-08-07T10:06:21.811Z,26.03
2017-08-07T10:08:47.662Z,25.67
2017-08-07T10:11:13.476Z,25.57
2017-08-07T10:13:39.387Z,26.44
2017-08-07T10:16:05.405Z,26.73
2017-08-07T10:18:31.332Z,24.16
2017-08-07T10:20:57.329Z,24.38
2017-08-07T10:23:23.189Z,25.46
2017-08-07T10:25:49.067Z,24.64
2017-08-07T10:28:14.916Z,24.75
2017-08-07T10:30:40.851Z,25.35
2017-08-07T10:33:06.654Z,25.83
2017-08-07T10:35:32.504Z,25.70
2017-08-07T10:37:58.357Z,25.94
2017-08-07T10:40:24.299Z,27.46
2017-08-07T10:42:50.208Z,28.49
2017-08-07T10:45:16.172Z,28.81
2017-08-07T10:47:42.088Z,29.23
2017-08-07T10:50:08.001Z,26.22
2017-08-07T10:52:33.837Z,26.51
2017-08-07T10:54:59.751Z,28.36
2017-08-07T10:57:25.648Z,29.08
2017-08-07T10:59:51.474Z,27.27
2017-08-07T11:02:17.331Z,25.13
2017-08-07T11:04:43.197Z,26.29
2017-08-07T11:07:09.263Z,28.23
2017-08-07T11:09:35.149Z,30.24
2017-08-07T11:12:00.979Z,28.44
2017-08-07T11:14:26.835Z,26.68
2017-08-07T11:16:52.664Z,26.83
2017-08-07T11:19:18.515Z,26.84
2017-08-07T11:21:44.350Z,26.73
2017-08-07T11:24:10.303Z,26.49
2017-08-07T11:26:36.312Z,25.71
2017-08-07T11:29:02.203Z,27.11
2017-08-07T11:31:28.265Z,28.15
2017-08-07T11:33:54.236Z,27.04
2017-08-07T11:36:20.083Z,27.95
2017-08-07T11:38:46.003Z,26.97
2017-08-07T11:41:11.879Z,29.30
2017-08-07T11:43:37.778Z,28.35
2017-08-07T11:46:03.655Z,27.64
2017-08-07T11:48:29.501Z,29.68
2017-08-07T11:50:55.356Z,26.91
2017-08-07T11:53:21.215Z,28.11
2017-08-07T11:55:47.203Z,28.32
2017-08-07T11:58:13.090Z,30.37
2017-08-07T12:00:39.020Z,30.99
2017-08-07T12:03:04.891Z,29.37
2017-08-07T12:05:30.890Z,27.12
2017-08-07T12:07:56.776Z,26.70
2017-08-07T12:10:22.733Z,27.49
2017-08-07T12:12:48.814Z,27.87
2017-08-07T12:15:14.707Z,27.42
2017-08-07T12:17:40.621Z,27.64
2017-08-07T12:20:06.495Z,27.57
2017-08-07T12:22:32.379Z,26.43
2017-08-07T12:24:58.298Z,27.54
2017-08-07T12:27:24.239Z,28.61
2017-08-07T12:29:50.125Z,29.35
2017-08-07T12:32:16.154Z,29.22
2017-08-07T12:34:42.087Z,28.08
2017-08-07T12:37:08.015Z,29.88
2017-08-07T12:39:33.927Z,30.33
2017-08-07T12:41:59.856Z,31.29
2017-08-07T12:44:25.884Z,31.83
2017-08-07T12:46:52.637Z,31.78
2017-08-07T12:49:18.522Z,31.14
2017-08-07T12:51:44.543Z,28.78
2017-08-07T12:54:10.558Z,27.71
2017-08-07T12:56:36.805Z,27.70
2017-08-07T12:59:02.889Z,27.01
2017-08-07T13:01:28.830Z,28.54
2017-08-07T13:03:54.845Z,28.11
2017-08-07T13:06:20.763Z,29.15
2017-08-07T13:08:46.631Z,29.82
2017-08-07T13:11:12.468Z,29.58
2017-08-07T13:13:38.356Z,31.77
2017-08-07T13:16:04.375Z,29.43
2017-08-07T13:18:30.438Z,28.54
2017-08-07T13:20:56.397Z,30.14
2017-08-07T13:23:22.427Z,28.23
2017-08-07T13:25:48.302Z,27.50
2017-08-07T13:28:14.260Z,28.78
2017-08-07T13:30:40.318Z,27.90
2017-08-07T13:33:06.352Z,30.00
2017-08-07T13:35:32.339Z,29.74
2017-08-07T13:37:58.185Z,30.61
2017-08-07T13:40:24.090Z,31.38
2017-08-07T13:42:50.072Z,31.44
2017-08-07T13:45:16.021Z,31.33
2017-08-07T13:47:42.072Z,29.62
2017-08-07T13:50:08.148Z,28.85
2017-08-07T13:52:34.095Z,29.21
2017-08-07T13:54:59.950Z,30.43
2017-08-07T13:57:25.940Z,27.85
2017-08-07T13:59:51.839Z,27.75
2017-08-07T14:02:17.766Z,28.10
2017-08-07T14:04:43.820Z,28.83
2017-08-07T14:07:09.818Z,29.04
2017-08-07T14:09:35.644Z,27.73
2017-08-07T14:12:01.619Z,28.51
2017-08-07T14:14:27.504Z,28.30
2017-08-07T14:16:53.347Z,27.76
2017-08-07T14:19:19.242Z,28.95
2017-08-07T14:21:45.163Z,28.54
2017-08-07T14:24:11.027Z,29.54
2017-08-07T14:26:36.844Z,27.95
2017-08-07T14:29:02.743Z,28.45
2017-08-07T14:31:28.824Z,29.03
2017-08-07T14:33:54.767Z,30.55
2017-08-07T14:36:20.730Z,31.42
2017-08-07T14:38:46.582Z,28.06
2017-08-07T14:41:12.613Z,28.21
2017-08-07T14:43:38.546Z,28.79
2017-08-07T14:46:04.459Z,29.30
2017-08-07T14:48:30.323Z,30.64
2017-08-07T14:50:56.212Z,30.40
2017-08-07T14:53:22.163Z,29.28
2017-08-07T14:55:48.083Z,29.38
2017-08-07T14:58:13.907Z,31.53
2017-08-07T15:00:39.756Z,30.95
2017-08-07T15:03:05.628Z,31.08
2017-08-07T15:05:31.551Z,32.27
2017-08-07T15:07:57.379Z,32.54
2017-08-07T15:10:23.255Z,32.93
2017-08-07T15:12:49.103Z,32.76
2017-08-07T15:15:14.936Z,32.42
2017-08-07T15:17:40.828Z,32.98
2017-08-07T15:20:06.668Z,31.81
2017-08-07T15:22:32.529Z,31.92
2017-08-07T15:24:58.364Z,32.13
2017-08-07T15:27:24.394Z,31.26
2017-08-07T15:29:50.231Z,30.94
2017-08-07T15:32:16.239Z,29.46
2017-08-07T15:34:42.095Z,29.30
2017-08-07T15:37:08.095Z,31.13
2017-08-07T15:39:34.102Z,31.23
2017-08-07T15:42:00.199Z,30.80
2017-08-07T15:44:26.060Z,27.72
2017-08-07T15:46:52.234Z,27.59
2017-08-07T15:49:18.156Z,27.76
2017-08-07T15:51:43.982Z,28.26
2017-08-07T15:54:09.814Z,27.61
2017-08-07T15:56:35.640Z,28.89
2017-08-07T15:59:01.485Z,27.24
2017-08-07T16:01:27.404Z,28.85
2017-08-07T16:03:53.261Z,29.23
2017-08-07T16:06:19.107Z,27.84
2017-08-07T16:08:44.961Z,28.21
2017-08-07T16:11:10.782Z,27.54
2017-08-07T16:13:36.791Z,28.21
2017-08-07T16:16:02.609Z,28.47
2017-08-07T16:18:28.451Z,28.82
2017-08-07T16:20:54.379Z,28.43
2017-08-07T16:23:20.204Z,27.50
2017-08-07T16:25:46.042Z,26.93
2017-08-07T16:28:12.155Z,27.35
2017-08-07T16:30:38.072Z,26.91
2017-08-07T16:33:03.977Z,26.92
2017-08-07T16:35:29.887Z,27.49
2017-08-07T16:37:55.762Z,26.83
2017-08-07T16:40:21.602Z,26.58
2017-08-07T16:42:47.428Z,26.97
2017-08-07T16:45:13.278Z,26.74
2017-08-07T16:47:39.299Z,26.33
2017-08-07T16:50:05.164Z,26.35
2017-08-07T16:52:31.111Z,26.45
2017-08-07T16:54:56.967Z,26.38
2017-08-07T16:57:22.858Z,25.98
2017-08-07T16:59:48.703Z,25.90
2017-08-07T17:02:14.541Z,25.95
2017-08-07T17:04:40.439Z,26.19
2017-08-07T17:07:06.460Z,25.71
2017-08-07T17:09:32.379Z,25.50
2017-08-07T17:11:58.267Z,25.03
2017-08-07T17:14:24.299Z,25.52
2017-08-07T17:16:50.115Z,25.85
2017-08-07T17:19:15.948Z,25.39
2017-08-07T17:21:41.991Z,25.27
2017-08-07T17:24:07.892Z,25.39
2017-08-07T17:26:33.725Z,25.26
2017-08-07T17:28:59.568Z,25.03
2017-08-07T17:31:25.443Z,25.03
2017-08-07T17:33:51.461Z,24.58
2017-08-07T17:36:17.501Z,24.91
2017-08-07T17:38:43.351Z,24.97
2017-08-07T17:41:09.339Z,24.59
2017-08-07T17:43:35.272Z,24.68
2017-08-07T17:46:01.194Z,24.68
2017-08-07T17:48:27.223Z,24.59
2017-08-07T17:50:53.178Z,24.16
2017-08-07T17:53:19.004Z,24.40
2017-08-07T17:55:44.810Z,24.31
2017-08-07T17:58:10.659Z,24.23
2017-08-07T18:00:36.749Z,24.09
2017-08-07T18:03:02.637Z,24.35
2017-08-07T18:05:28.527Z,24.26
2017-08-07T18:07:54.356Z,24.18
2017-08-07T18:10:20.172Z,24.17
2017-08-07T18:12:46.046Z,24.25
2017-08-07T18:15:12.004Z,23.69
2017-08-07T18:17:37.831Z,23.88
2017-08-07T18:20:03.667Z,23.94
2017-08-07T18:22:29.458Z,24.03
2017-08-07T18:24:55.295Z,23.92
2017-08-07T18:27:21.296Z,23.88
2017-08-07T18:29:47.170Z,23.69
2017-08-07T18:32:13.170Z,23.59
2017-08-07T18:34:39.171Z,23.73
2017-08-07T18:37:05.035Z,23.48
2017-08-07T18:39:30.927Z,23.47
2017-08-07T18:41:56.820Z,23.36
2017-08-07T18:44:22.662Z,23.31
2017-08-07T18:46:48.664Z,23.28
2017-08-07T18:49:14.487Z,23.14
2017-08-07T18:51:40.282Z,22.93
2017-08-07T18:54:06.134Z,22.96
2017-08-07T18:56:31.967Z,22.88
2017-08-07T18:58:57.973Z,22.79
2017-08-07T19:01:23.848Z,22.58
2017-08-07T19:03:49.806Z,22.52
2017-08-07T19:06:15.631Z,22.50
2017-08-07T19:08:41.461Z,22.47
2017-08-07T19:11:07.256Z,22.31
2017-08-07T19:13:33.062Z,22.22
2017-08-07T19:15:58.905Z,22.23
2017-08-07T19:18:24.751Z,22.20
2017-08-07T19:20:50.566Z,22.13
2017-08-07T19:23:16.628Z,22.05
2017-08-07T19:25:42.517Z,21.97
2017-08-07T19:28:08.359Z,21.87
2017-08-07T19:30:34.221Z,21.76
2017-08-07T19:33:00.039Z,21.75
2017-08-07T19:35:26.031Z,21.74
2017-08-07T19:37:51.851Z,21.64
2017-08-07T19:40:17.712Z,21.59
2017-08-07T19:42:43.731Z,21.54
2017-08-07T19:45:09.592Z,21.62
2017-08-07T19:47:35.532Z,21.63
2017-08-07T19:50:01.364Z,21.58
2017-08-07T19:52:27.219Z,21.59
2017-08-07T19:54:53.039Z,21.49
2017-08-07T19:57:18.891Z,21.41
2017-08-07T19:59:44.915Z,21.38
2017-08-07T20:02:10.908Z,21.43
2017-08-07T20:04:37.764Z,21.41
2017-08-07T20:07:03.776Z,21.37
2017-08-07T20:09:29.748Z,21.41
2017-08-07T20:11:55.622Z,21.43
2017-08-07T20:14:21.441Z,21.32
2017-08-07T20:16:47.508Z,21.22
2017-08-07T20:19:13.400Z,21.18
2017-08-07T20:21:39.307Z,21.12
2017-08-07T20:24:05.344Z,21.13
2017-08-07T20:26:31.260Z,21.16
2017-08-07T20:28:57.124Z,21.08
2017-08-07T20:31:23.000Z,20.95
2017-08-07T20:33:48.911Z,20.97
2017-08-07T20:36:14.776Z,20.77
2017-08-07T20:38:40.634Z,20.89
2017-08-07T20:41:06.692Z,20.94
2017-08-07T20:43:32.648Z,20.95
2017-08-07T20:45:58.486Z,20.95
2017-08-07T20:48:24.315Z,20.82
2017-08-07T20:50:50.372Z,20.78
2017-08-07T20:53:16.371Z,20.79
2017-08-07T20:55:42.260Z,20.52
2017-08-07T20:58:08.131Z,20.64
2017-08-07T21:00:33.996Z,20.71
2017-08-07T21:02:59.891Z,20.49
2017-08-07T21:05:25.821Z,20.54
2017-08-07T21:07:51.724Z,20.65
2017-08-07T21:10:17.667Z,20.63
2017-08-07T21:12:43.506Z,20.57
2017-08-07T21:15:09.332Z,20.54
2017-08-07T21:17:35.220Z,20.60
2017-08-07T21:20:01.135Z,20.55
2017-08-07T21:22:26.976Z,20.52
2017-08-07T21:24:52.832Z,20.54
2017-08-07T21:27:18.662Z,20.48
2017-08-07T21:29:44.643Z,20.38
2017-08-07T21:32:10.494Z,20.42
2017-08-07T21:34:36.311Z,20.38
2017-08-07T21:37:02.155Z,20.25
2017-08-07T21:39:28.065Z,20.32
2017-08-07T21:41:53.904Z,20.14
2017-08-07T21:44:19.728Z,20.14
2017-08-07T21:46:46.396Z,20.03
2017-08-07T21:49:12.253Z,20.11
2017-08-07T21:51:38.224Z,20.16
2017-08-07T21:54:04.043Z,20.02
2017-08-07T21:56:29.896Z,20.08
2017-08-07T21:58:55.744Z,19.95
2017-08-07T22:01:21.692Z,19.92
2017-08-07T22:03:47.561Z,19.70
2017-08-07T22:06:13.419Z,19.78
2017-08-07T22:08:39.318Z,19.79
2017-08-07T22:11:05.191Z,19.70
2017-08-07T22:13:31.040Z,19.72
2017-08-07T22:15:56.856Z,19.69
2017-08-07T22:18:22.715Z,19.73
2017-08-07T22:20:48.609Z,19.65
2017-08-07T22:23:15.092Z,19.67
2017-08-07T22:25:40.952Z,19.55
2017-08-07T22:28:06.795Z,19.49
2017-08-07T22:30:32.728Z,19.24
2017-08-07T22:32:58.620Z,19.29
2017-08-07T22:35:24.465Z,19.33
2017-08-07T22:37:50.417Z,19.44
2017-08-07T22:40:16.243Z,19.50
2017-08-07T22:42:42.076Z,19.57
2017-08-07T22:45:07.956Z,19.36
2017-08-07T22:47:33.843Z,19.15
2017-08-07T22:49:59.668Z,19.28
2017-08-07T22:52:25.537Z,19.19
2017-08-07T22:54:51.409Z,19.16
2017-08-07T22:57:17.424Z,19.29
2017-08-07T22:59:43.393Z,19.31
2017-08-07T23:02:09.318Z,19.21
2017-08-07T23:04:35.196Z,18.90
2017-08-07T23:07:01.019Z,18.84
2017-08-07T23:09:26.895Z,18.74
2017-08-07T23:11:52.763Z,18.58
2017-08-07T23:14:18.673Z,18.35
2017-08-07T23:16:44.563Z,18.05
2017-08-07T23:19:10.419Z,17.89
2017-08-07T23:21:36.399Z,17.74
2017-08-07T23:24:02.224Z,17.71
2017-08-07T23:26:28.057Z,17.77
2017-08-07T23:28:53.911Z,17.77
2017-08-07T23:31:19.824Z,17.86
2017-08-07T23:33:45.701Z,17.97
2017-08-07T23:36:11.532Z,17.77
2017-08-07T23:38:37.355Z,17.77
2017-08-07T23:41:03.218Z,17.55
2017-08-07T23:43:29.111Z,17.59
2017-08-07T23:45:54.935Z,17.56
2017-08-07T23:48:20.778Z,17.62
2017-08-07T23:50:46.643Z,17.63
2017-08-07T23:53:12.668Z,17.69
2017-08-07T23:55:38.500Z,17.75
2017-08-07T23:58:04.379Z,17.72
